Time;durP1;ratioP1;P1;durP2;ratioP2;P2;SDS_P1;SDS_P2;PMS_P1;PMS_P2;Temp;Humidity;BMP_temperature;BMP_pressure;BME280_temperature;BME280_humidity;BME280_pressure;Samples;Min_cycle;Max_cycle;Signal;HPM_P1;HPM_P2
2023/02/22 00:00:41;;;;;;;11.03;9.20;;;;;;;7.84;95.80;96598.81;5055179;28;20201;-73
2023/02/22 00:03:24;;;;;;;11.57;8.73;;;;;;;7.86;95.63;96599.38;5054300;28;20186;-72
2023/02/22 00:05:58;;;;;;;13.20;9.30;;;;;;;7.72;96.36;96600.53;5055674;28;20197;-73
2023/02/22 00:08:29;;;;;;;10.73;9.20;;;;;;;7.72;96.51;96590.09;5055511;28;20217;-70
2023/02/22 00:10:59;;;;;;;12.40;9.60;;;;;;;7.72;96.95;96597.13;5054855;28;20213;-71
2023/02/22 00:13:27;;;;;;;12.63;10.13;;;;;;;7.72;97.21;96597.91;5054788;28;20190;-71
2023/02/22 00:15:53;;;;;;;14.07;10.23;;;;;;;7.75;96.64;96594.06;5055620;28;20208;-70
2023/02/22 00:18:19;;;;;;;11.60;10.00;;;;;;;7.70;97.24;96599.94;5055254;28;20275;-72
2023/02/22 00:20:45;;;;;;;13.93;10.10;;;;;;;7.70;96.94;96605.16;5055355;28;20243;-71
2023/02/22 00:23:17;;;;;;;12.30;10.17;;;;;;;7.75;96.78;96601.91;5053945;28;20197;-71
2023/02/22 00:25:44;;;;;;;16.37;9.53;;;;;;;7.71;96.70;96591.09;5055541;28;20631;-72
2023/02/22 00:28:09;;;;;;;13.03;10.47;;;;;;;7.70;96.82;96591.31;5054928;28;20214;-71
2023/02/22 00:30:34;;;;;;;11.87;10.50;;;;;;;7.77;96.10;96587.63;5054891;28;20192;-72
2023/02/22 00:33:00;;;;;;;11.57;9.20;;;;;;;7.76;96.29;96585.22;5054687;28;20206;-72
2023/02/22 00:35:28;;;;;;;13.27;9.80;;;;;;;7.66;96.79;96580.50;5054966;28;20182;-72
2023/02/22 00:37:56;;;;;;;15.63;11.70;;;;;;;7.45;97.55;96586.09;5054182;28;20742;-71
2023/02/22 00:40:25;;;;;;;25.80;14.13;;;;;;;7.38;98.29;96580.91;5054752;28;20269;-71
2023/02/22 00:42:51;;;;;;;34.60;18.57;;;;;;;7.30;98.60;96583.00;5052905;28;20202;-71
2023/02/22 00:45:23;;;;;;;32.20;16.73;;;;;;;7.39;98.60;96584.31;5054592;28;20198;-72
2023/02/22 00:47:48;;;;;;;18.17;12.23;;;;;;;7.27;98.82;96584.19;5047176;28;20581;-73
2023/02/22 00:50:15;;;;;;;19.83;11.17;;;;;;;7.28;99.37;96585.00;5054789;28;20186;-72
2023/02/22 00:52:41;;;;;;;15.63;10.40;;;;;;;7.38;98.63;96578.31;5054579;28;20193;-72
2023/02/22 00:55:09;;;;;;;13.37;9.63;;;;;;;7.33;98.78;96572.94;5053430;28;20189;-72
2023/02/22 00:57:35;;;;;;;12.83;9.97;;;;;;;7.31;98.95;96571.53;5063242;28;20220;-74
2023/02/22 01:00:10;;;;;;;10.27;8.70;;;;;;;7.32;99.34;96567.91;5049205;28;20194;-72
2023/02/22 01:02:39;;;;;;;16.67;9.07;;;;;;;7.28;99.81;96564.94;5052938;28;20181;-71
2023/02/22 01:05:07;;;;;;;12.23;8.87;;;;;;;7.40;99.23;96563.25;5054230;28;20654;-71
2023/02/22 01:07:33;;;;;;;11.83;8.83;;;;;;;7.43;98.99;96562.81;5054323;28;20333;-72
2023/02/22 01:09:59;;;;;;;12.10;8.63;;;;;;;7.36;99.49;96556.84;5054360;28;20213;-72
2023/02/22 01:12:24;;;;;;;10.33;9.17;;;;;;;7.47;98.79;96557.97;5053962;28;20686;-72
2023/02/22 01:14:49;;;;;;;12.00;8.23;;;;;;;7.42;98.85;96557.81;5054523;28;20193;-71
2023/02/22 01:17:15;;;;;;;10.67;9.00;;;;;;;7.36;99.28;96549.03;5052979;28;20292;-71
2023/02/22 01:19:41;;;;;;;12.23;8.90;;;;;;;7.44;99.02;96553.19;5052937;28;20200;-72
2023/02/22 01:22:07;;;;;;;15.50;9.47;;;;;;;7.39;99.35;96558.25;5054010;28;20190;-71
2023/02/22 01:24:32;;;;;;;15.27;8.60;;;;;;;7.31;99.51;96548.88;5054122;28;20235;-71
2023/02/22 01:26:58;;;;;;;10.60;9.23;;;;;;;7.26;99.62;96550.50;5053632;28;20296;-72
2023/02/22 01:29:23;;;;;;;11.87;8.90;;;;;;;7.19;100.00;96541.97;5053258;28;20639;-72
2023/02/22 01:31:54;;;;;;;13.57;8.97;;;;;;;7.14;100.00;96547.78;5053955;28;20635;-71
2023/02/22 01:34:22;;;;;;;14.53;9.37;;;;;;;7.29;99.54;96543.09;5053787;28;20222;-72
2023/02/22 01:36:47;;;;;;;12.33;8.93;;;;;;;7.30;99.25;96547.25;5053495;28;20654;-72
2023/02/22 01:39:13;;;;;;;12.60;8.87;;;;;;;7.19;99.76;96542.72;5053695;28;20189;-72
2023/02/22 01:41:38;;;;;;;11.07;8.67;;;;;;;7.03;100.00;96545.84;5043987;28;20202;-72
2023/02/22 01:44:27;;;;;;;11.33;8.83;;;;;;;6.99;100.00;96544.69;5053424;28;20195;-71
2023/02/22 01:46:55;;;;;;;14.07;8.50;;;;;;;6.95;100.00;96541.69;5052705;28;20271;-73
2023/02/22 01:49:22;;;;;;;12.93;9.50;;;;;;;6.94;100.00;96536.69;5052870;28;20186;-72
2023/02/22 01:51:51;;;;;;;13.67;8.80;;;;;;;6.88;100.00;96534.91;5053698;28;20233;-72
2023/02/22 01:54:56;;;;;;;11.10;8.63;;;;;;;6.74;100.00;96534.22;5053555;28;20237;-72
2023/02/22 01:57:23;;;;;;;11.53;8.50;;;;;;;6.69;100.00;96521.00;5053307;28;20202;-72
2023/02/22 01:59:54;;;;;;;10.97;8.70;;;;;;;6.66;100.00;96519.63;5053525;28;20201;-72
2023/02/22 02:02:20;;;;;;;10.77;8.93;;;;;;;6.70;100.00;96514.78;5052671;28;20185;-72
2023/02/22 02:04:47;;;;;;;14.23;8.40;;;;;;;6.58;100.00;96525.06;5053846;28;20186;-72
2023/02/22 02:07:16;;;;;;;12.97;8.87;;;;;;;6.46;100.00;96511.13;5052951;28;20678;-73
2023/02/22 02:09:58;;;;;;;9.93;8.93;;;;;;;6.59;100.00;96510.22;5053359;28;20218;-73
2023/02/22 02:12:26;;;;;;;9.87;8.83;;;;;;;6.47;100.00;96510.09;5053003;28;20201;-72
2023/02/22 02:14:52;;;;;;;14.63;10.07;;;;;;;6.37;100.00;96508.94;5053135;28;20677;-73
2023/02/22 02:17:21;;;;;;;12.73;9.57;;;;;;;6.38;100.00;96510.53;5053207;28;20288;-73
2023/02/22 02:20:10;;;;;;;12.13;9.97;;;;;;;6.25;100.00;96503.56;5053347;28;20285;-73
2023/02/22 02:22:41;;;;;;;12.20;10.47;;;;;;;6.10;100.00;96508.22;5038290;28;20269;-72
2023/02/22 02:25:28;;;;;;;13.87;10.57;;;;;;;5.86;100.00;96512.25;5052888;28;20202;-73
2023/02/22 02:28:33;;;;;;;12.87;10.07;;;;;;;5.85;100.00;96501.06;5052996;28;20212;-72
2023/02/22 02:31:13;;;;;;;13.70;11.17;;;;;;;6.02;100.00;96504.03;5052898;28;20174;-73
2023/02/22 02:34:20;;;;;;;15.10;10.87;;;;;;;5.87;100.00;96500.88;5051051;28;20816;-73
2023/02/22 02:37:09;;;;;;;13.00;10.13;;;;;;;5.84;100.00;96496.06;5044914;28;20662;-73
2023/02/22 02:39:48;;;;;;;11.50;10.10;;;;;;;5.73;100.00;96496.69;5052480;28;20637;-73
2023/02/22 02:42:21;;;;;;;12.80;10.00;;;;;;;5.58;100.00;96496.09;5050087;28;20275;-72
2023/02/22 02:44:54;;;;;;;11.60;10.00;;;;;;;5.31;100.00;96487.53;5052728;28;20194;-73
2023/02/22 02:47:25;;;;;;;12.83;9.83;;;;;;;5.31;100.00;96483.13;5052406;28;20230;-73
2023/02/22 02:50:14;;;;;;;10.83;9.37;;;;;;;5.53;100.00;96477.72;5052655;28;20647;-73
2023/02/22 02:52:42;;;;;;;14.57;9.57;;;;;;;5.47;100.00;96479.31;5052537;28;20185;-73
2023/02/22 02:55:10;;;;;;;14.17;9.70;;;;;;;5.31;100.00;96471.94;5052517;28;20189;-73
2023/02/22 02:57:37;;;;;;;11.83;10.07;;;;;;;5.31;100.00;96477.94;5052182;28;20209;-73
2023/02/22 03:00:23;;;;;;;11.67;9.33;;;;;;;5.32;100.00;96468.34;5051796;28;20190;-73
2023/02/22 03:03:03;;;;;;;12.37;9.57;;;;;;;5.33;100.00;96465.56;5059496;28;20200;-73
2023/02/22 03:05:41;;;;;;;15.27;9.13;;;;;;;5.25;100.00;96468.34;5059426;28;20212;-73
2023/02/22 03:08:16;;;;;;;12.00;9.70;;;;;;;5.06;100.00;96469.16;5058859;28;20209;-73
2023/02/22 03:11:17;;;;;;;11.37;10.00;;;;;;;5.14;100.00;96461.16;5059319;28;20186;-73
2023/02/22 03:13:54;;;;;;;10.83;9.73;;;;;;;4.95;100.00;96454.19;5033644;28;20251;-73
2023/02/22 03:16:28;;;;;;;12.23;10.20;;;;;;;4.94;100.00;96453.38;5059348;28;20182;-73
2023/02/22 03:19:03;;;;;;;11.53;10.00;;;;;;;4.83;100.00;96456.56;5059161;28;20211;-74
2023/02/22 03:21:50;;;;;;;11.90;10.60;;;;;;;4.83;100.00;96453.16;5059300;28;20216;-73
2023/02/22 03:24:18;;;;;;;10.60;9.60;;;;;;;4.82;100.00;96448.97;5058952;28;20205;-73
2023/02/22 03:27:01;;;;;;;14.17;9.97;;;;;;;4.98;100.00;96449.38;5059049;28;20583;-73
2023/02/22 03:29:35;;;;;;;11.67;10.37;;;;;;;5.03;100.00;96451.38;5058896;28;20198;-73
2023/02/22 03:32:03;;;;;;;12.87;11.07;;;;;;;4.94;100.00;96442.19;5059221;28;20178;-73
2023/02/22 03:34:40;;;;;;;11.70;10.47;;;;;;;4.98;100.00;96448.56;5058664;28;20302;-73
2023/02/22 03:37:17;;;;;;;10.37;8.93;;;;;;;4.86;100.00;96450.16;5058856;28;20185;-73
2023/02/22 03:39:45;;;;;;;11.90;10.47;;;;;;;4.87;100.00;96443.97;5057327;28;20283;-72
2023/02/22 03:42:17;;;;;;;10.73;9.63;;;;;;;4.89;100.00;96439.41;5059211;28;20201;-73
2023/02/22 03:44:46;;;;;;;11.73;9.87;;;;;;;5.10;100.00;96444.38;5059203;28;20190;-73
2023/02/22 03:47:17;;;;;;;13.63;9.77;;;;;;;4.91;100.00;96435.59;5057667;28;20233;-73
2023/02/22 03:49:51;;;;;;;12.20;9.40;;;;;;;4.79;100.00;96441.59;5057245;28;20202;-73
2023/02/22 03:52:18;;;;;;;14.97;9.40;;;;;;;4.81;100.00;96444.75;5058922;28;20200;-73
2023/02/22 03:54:44;;;;;;;10.83;9.73;;;;;;;4.87;100.00;96449.16;5058707;28;20225;-73
2023/02/22 03:57:23;;;;;;;11.33;9.67;;;;;;;4.78;100.00;96445.97;5059024;28;20283;-73
2023/02/22 03:59:49;;;;;;;12.23;8.97;;;;;;;4.81;100.00;96442.97;5057774;28;20189;-73
2023/02/22 04:02:17;;;;;;;11.30;9.17;;;;;;;4.63;100.00;96442.75;5058947;28;20196;-73
2023/02/22 04:04:46;;;;;;;15.13;11.63;;;;;;;4.63;100.00;96439.34;5058704;28;20202;-73
2023/02/22 04:07:12;;;;;;;22.10;12.93;;;;;;;4.58;100.00;96439.94;5057395;28;20284;-73
2023/02/22 04:09:37;;;;;;;16.20;11.87;;;;;;;4.81;100.00;96445.56;5058771;28;20198;-72
2023/02/22 04:12:03;;;;;;;13.70;10.50;;;;;;;4.67;100.00;96448.34;5057272;28;20197;-73
2023/02/22 04:14:28;;;;;;;11.07;9.93;;;;;;;4.76;100.00;96447.97;5055001;28;20190;-73
2023/02/22 04:16:54;;;;;;;10.57;9.50;;;;;;;4.79;100.00;96444.94;5055746;28;20194;-72
2023/02/22 04:19:19;;;;;;;13.53;9.90;;;;;;;4.64;100.00;96446.13;5054954;28;20190;-73
2023/02/22 04:21:45;;;;;;;10.73;9.60;;;;;;;4.75;100.00;96438.56;5055315;28;20474;-73
2023/02/22 04:24:10;;;;;;;10.97;9.30;;;;;;;4.66;100.00;96438.97;5055142;28;20561;-73
2023/02/22 04:26:36;;;;;;;11.13;9.60;;;;;;;4.45;100.00;96429.56;5055680;28;20653;-73
2023/02/22 04:29:03;;;;;;;10.67;9.60;;;;;;;4.53;100.00;96434.53;5054247;28;20198;-73
2023/02/22 04:31:28;;;;;;;12.57;9.77;;;;;;;4.49;100.00;96430.75;5055308;28;20239;-73
2023/02/22 04:33:54;;;;;;;18.77;10.00;;;;;;;4.63;100.00;96432.34;5054869;28;20221;-73
2023/02/22 04:36:20;;;;;;;12.93;9.43;;;;;;;4.53;100.00;96430.16;5053695;28;20198;-73
2023/02/22 04:38:46;;;;;;;10.83;9.70;;;;;;;4.56;100.00;96432.38;5055197;28;20283;-73
2023/02/22 04:41:12;;;;;;;13.77;8.97;;;;;;;4.45;100.00;96434.75;5047028;28;20686;-73
2023/02/22 04:43:37;;;;;;;10.33;9.40;;;;;;;4.38;100.00;96433.94;5055242;28;20225;-73
2023/02/22 04:46:03;;;;;;;16.43;10.57;;;;;;;4.36;100.00;96433.31;5053960;28;20650;-73
2023/02/22 04:48:29;;;;;;;10.77;9.70;;;;;;;4.31;100.00;96431.31;5054863;28;20209;-73
2023/02/22 04:50:54;;;;;;;11.07;9.97;;;;;;;4.40;100.00;96431.94;5054970;28;20208;-74
2023/02/22 04:53:19;;;;;;;14.27;11.00;;;;;;;4.33;100.00;96431.94;5054813;28;20189;-73
2023/02/22 04:55:45;;;;;;;11.07;10.00;;;;;;;4.21;100.00;96425.69;5055271;28;20630;-73
2023/02/22 04:58:10;;;;;;;11.03;9.93;;;;;;;4.13;100.00;96426.66;5053063;28;20201;-73
2023/02/22 05:00:35;;;;;;;12.17;10.13;;;;;;;4.16;100.00;96428.09;5054029;28;20276;-72
2023/02/22 05:03:01;;;;;;;10.77;9.63;;;;;;;4.18;100.00;96421.69;5053812;28;20631;-73
2023/02/22 05:05:26;;;;;;;12.13;10.03;;;;;;;4.01;100.00;96424.84;5054066;28;20190;-73
2023/02/22 05:07:52;;;;;;;11.63;9.93;;;;;;;4.08;100.00;96425.66;5054262;28;20697;-73
2023/02/22 05:10:18;;;;;;;11.57;9.00;;;;;;;4.19;100.00;96420.69;5056698;28;20195;-72
2023/02/22 05:12:43;;;;;;;11.27;10.17;;;;;;;4.06;100.00;96423.28;5053728;28;20674;-73
2023/02/22 05:15:09;;;;;;;11.73;9.80;;;;;;;4.14;100.00;96417.91;5055189;28;20190;-73
2023/02/22 05:17:35;;;;;;;12.53;9.80;;;;;;;4.12;100.00;96417.28;5053768;28;20198;-73
2023/02/22 05:20:01;;;;;;;10.80;9.13;;;;;;;4.22;100.00;96413.53;5054376;28;20193;-73
2023/02/22 05:22:27;;;;;;;11.00;9.70;;;;;;;4.16;100.00;96410.72;5054101;28;20190;-73
2023/02/22 05:24:52;;;;;;;10.83;9.20;;;;;;;4.16;100.00;96407.34;5053425;28;20197;-73
2023/02/22 05:27:18;;;;;;;10.73;9.63;;;;;;;4.28;100.00;96415.34;5054027;28;20743;-73
2023/02/22 05:29:44;;;;;;;11.07;9.90;;;;;;;4.21;100.00;96415.31;5053791;28;20190;-72
2023/02/22 05:32:11;;;;;;;10.57;9.47;;;;;;;4.16;100.00;96412.53;5053757;28;20225;-73
2023/02/22 05:34:36;;;;;;;13.50;10.30;;;;;;;4.10;100.00;96408.91;5053849;28;20304;-73
2023/02/22 05:37:02;;;;;;;12.10;9.87;;;;;;;4.08;100.00;96402.31;5053635;28;20300;-73
2023/02/22 05:39:28;;;;;;;13.00;10.63;;;;;;;4.23;100.00;96407.34;5051597;28;20186;-73
2023/02/22 05:41:53;;;;;;;12.87;10.67;;;;;;;4.34;100.00;96404.19;5053789;28;20608;-73
2023/02/22 05:44:18;;;;;;;11.70;10.50;;;;;;;4.40;100.00;96409.38;5051893;28;20182;-73
2023/02/22 05:46:44;;;;;;;18.97;11.10;;;;;;;4.49;100.00;96404.81;5053630;28;20178;-73
2023/02/22 05:49:09;;;;;;;13.03;11.03;;;;;;;4.53;100.00;96400.81;5053216;28;20205;-73
2023/02/22 05:51:34;;;;;;;12.27;10.73;;;;;;;4.50;100.00;96402.03;5053502;28;20244;-73
2023/02/22 05:54:00;;;;;;;12.50;11.23;;;;;;;4.60;100.00;96392.03;5053790;28;20685;-73
2023/02/22 05:56:29;;;;;;;12.83;10.57;;;;;;;4.58;100.00;96393.22;5053289;28;20190;-73
2023/02/22 05:58:54;;;;;;;14.00;11.47;;;;;;;4.70;100.00;96394.25;5053200;28;20194;-73
2023/02/22 06:01:20;;;;;;;11.93;10.23;;;;;;;4.70;100.00;96391.66;5045526;28;20205;-72
2023/02/22 06:03:50;;;;;;;14.57;11.60;;;;;;;4.71;100.00;96402.84;5053322;28;20202;-73
2023/02/22 06:06:16;;;;;;;12.93;11.17;;;;;;;4.73;100.00;96395.66;5052394;28;20186;-74
2023/02/22 06:08:42;;;;;;;16.20;10.57;;;;;;;4.85;100.00;96394.03;5053057;28;20210;-72
2023/02/22 06:11:08;;;;;;;14.33;11.10;;;;;;;4.89;100.00;96390.06;5052266;28;20194;-73
2023/02/22 06:13:34;;;;;;;12.67;11.33;;;;;;;4.85;100.00;96399.22;5051448;28;20193;-72
2023/02/22 06:16:00;;;;;;;14.83;11.97;;;;;;;4.84;100.00;96390.66;5052843;28;20650;-73
2023/02/22 06:18:25;;;;;;;12.13;10.70;;;;;;;4.70;100.00;96393.44;5053187;28;20283;-73
2023/02/22 06:20:51;;;;;;;12.40;9.70;;;;;;;4.62;100.00;96391.84;5052999;28;20665;-73
2023/02/22 06:23:16;;;;;;;14.53;10.20;;;;;;;4.60;100.00;96386.84;5052874;28;20255;-72
2023/02/22 06:25:42;;;;;;;14.97;10.20;;;;;;;4.72;100.00;96394.84;5052774;28;20222;-72
2023/02/22 06:28:07;;;;;;;17.63;10.10;;;;;;;4.73;100.00;96400.84;5051501;28;20255;-72
2023/02/22 06:30:33;;;;;;;11.17;9.90;;;;;;;4.67;100.00;96393.84;5052884;28;20190;-72
2023/02/22 06:32:58;;;;;;;15.10;9.83;;;;;;;4.73;100.00;96398.25;5051349;28;20534;-72
2023/02/22 06:35:23;;;;;;;13.03;10.47;;;;;;;4.81;100.00;96401.44;5043516;28;20186;-72
2023/02/22 06:37:49;;;;;;;13.70;11.67;;;;;;;4.80;100.00;96399.81;5052831;28;20643;-72
2023/02/22 06:40:15;;;;;;;12.67;11.07;;;;;;;4.83;100.00;96402.03;5051167;28;20273;-72
2023/02/22 06:42:40;;;;;;;12.03;10.43;;;;;;;5.12;100.00;96403.44;5052917;28;20218;-72
2023/02/22 06:45:07;;;;;;;16.90;10.53;;;;;;;5.26;100.00;96401.59;5052990;28;20623;-72
2023/02/22 06:47:32;;;;;;;15.17;10.50;;;;;;;5.45;100.00;96403.38;5052391;28;20617;-71
2023/02/22 06:49:59;;;;;;;15.27;10.23;;;;;;;5.60;100.00;96396.13;5050982;28;20186;-72
2023/02/22 06:52:25;;;;;;;11.53;10.33;;;;;;;5.70;100.00;96398.28;5052807;28;20191;-71
2023/02/22 06:54:51;;;;;;;16.57;12.10;;;;;;;5.80;100.00;96409.06;5052514;28;20186;-71
2023/02/22 06:57:17;;;;;;;13.30;10.43;;;;;;;5.88;100.00;96410.66;5052420;28;20228;-72
2023/02/22 06:59:43;;;;;;;14.50;10.53;;;;;;;5.99;100.00;96410.03;5051797;28;20252;-72
2023/02/22 07:02:11;;;;;;;12.73;10.20;;;;;;;5.87;100.00;96409.88;5051412;28;20248;-72
2023/02/22 07:04:37;;;;;;;15.23;9.83;;;;;;;6.03;100.00;96399.00;5052343;28;20236;-72
2023/02/22 07:07:02;;;;;;;13.37;9.77;;;;;;;6.13;100.00;96407.13;5051280;28;20210;-72
2023/02/22 07:09:27;;;;;;;13.57;10.27;;;;;;;6.28;100.00;96411.28;5052485;28;20186;-72
2023/02/22 07:11:54;;;;;;;11.50;9.77;;;;;;;6.30;100.00;96404.84;5052196;28;20631;-72
2023/02/22 07:14:20;;;;;;;11.50;9.37;;;;;;;6.32;100.00;96404.66;5052326;28;20186;-72
2023/02/22 07:16:46;;;;;;;11.40;10.20;;;;;;;6.41;100.00;96411.22;5052406;28;20197;-73
2023/02/22 07:19:11;;;;;;;10.90;9.80;;;;;;;6.59;100.00;96412.09;5051644;28;20535;-71
2023/02/22 07:21:36;;;;;;;13.73;10.27;;;;;;;6.84;99.43;96413.94;5051434;28;20202;-72
2023/02/22 07:24:02;;;;;;;10.10;9.07;;;;;;;7.14;98.51;96407.06;5052689;28;20188;-72
2023/02/22 07:26:27;;;;;;;15.00;9.47;;;;;;;7.20;96.85;96408.00;5050559;28;20186;-72
2023/02/22 07:28:52;;;;;;;14.37;11.63;;;;;;;7.22;96.81;96409.41;5052370;28;20704;-71
2023/02/22 07:31:18;;;;;;;13.43;12.13;;;;;;;7.20;96.51;96411.41;5050750;28;20196;-72
2023/02/22 07:33:46;;;;;;;13.00;11.80;;;;;;;7.54;94.69;96407.47;5051777;28;20220;-71
2023/02/22 07:36:13;;;;;;;12.97;10.03;;;;;;;7.75;93.05;96414.06;5052960;28;20190;-72
2023/02/22 07:38:39;;;;;;;17.53;15.93;;;;;;;7.87;92.42;96405.31;5051619;28;20194;-73
2023/02/22 07:41:05;;;;;;;15.50;13.90;;;;;;;7.87;91.96;96410.53;5054379;28;20289;-74
2023/02/22 07:43:30;;;;;;;16.47;14.90;;;;;;;7.88;91.81;96413.94;5034337;28;20196;-74
2023/02/22 07:45:58;;;;;;;17.53;15.97;;;;;;;7.73;93.47;96418.72;5052366;28;20198;-77
2023/02/22 07:48:27;;;;;;;13.57;11.60;;;;;;;7.64;94.89;96425.22;5054356;28;20267;-77
2023/02/22 07:50:53;;;;;;;14.73;13.40;;;;;;;7.55;93.08;96422.13;5056454;28;20194;-73
2023/02/22 07:53:31;;;;;;;16.33;14.93;;;;;;;7.73;93.81;96424.75;5055690;28;20552;-73
2023/02/22 07:55:57;;;;;;;16.30;14.70;;;;;;;7.89;92.42;96418.16;5055531;28;20607;-74
2023/02/22 07:58:25;;;;;;;14.30;12.93;;;;;;;7.82;92.52;96425.25;5055789;28;20201;-73
2023/02/22 08:00:50;;;;;;;12.70;11.23;;;;;;;7.97;91.81;96428.28;5055087;28;20229;-74
2023/02/22 08:03:18;;;;;;;11.63;10.43;;;;;;;8.07;90.90;96425.16;5055321;28;20224;-74
2023/02/22 08:05:46;;;;;;;12.60;10.57;;;;;;;8.13;91.06;96422.47;5055460;28;20206;-74
2023/02/22 08:08:14;;;;;;;11.00;9.47;;;;;;;8.34;89.17;96424.66;5054646;28;20201;-74
2023/02/22 08:10:40;;;;;;;11.93;10.70;;;;;;;8.32;89.22;96425.88;5054420;28;20190;-74
2023/02/22 08:13:05;;;;;;;15.03;10.57;;;;;;;8.47;88.28;96426.25;5051281;28;20248;-74
2023/02/22 08:15:36;;;;;;;11.00;9.33;;;;;;;8.77;86.74;96429.66;5053787;28;20202;-73
2023/02/22 08:18:04;;;;;;;11.43;10.33;;;;;;;9.00;85.11;96428.13;5053208;28;20526;-72
2023/02/22 08:20:30;;;;;;;14.23;12.77;;;;;;;9.04;83.48;96430.06;5053891;28;20202;-72
2023/02/22 08:22:56;;;;;;;13.33;10.40;;;;;;;8.83;84.97;96427.16;5053662;28;20190;-73
2023/02/22 08:25:25;;;;;;;10.23;8.90;;;;;;;8.84;83.74;96426.94;5052044;28;20220;-73
2023/02/22 08:27:51;;;;;;;13.60;11.43;;;;;;;8.59;85.39;96424.50;5049915;28;20258;-74
2023/02/22 08:30:22;;;;;;;18.63;16.97;;;;;;;8.67;84.24;96431.22;5034943;28;20191;-73
2023/02/22 08:32:48;;;;;;;21.47;19.67;;;;;;;8.41;85.29;96423.75;5042319;28;20191;-73
2023/02/22 08:35:16;;;;;;;24.00;22.10;;;;;;;8.54;85.85;96434.00;5053401;28;20307;-74
2023/02/22 08:37:43;;;;;;;32.40;30.20;;;;;;;8.98;85.25;96433.56;5053047;28;20662;-73
2023/02/22 08:40:09;;;;;;;16.43;15.00;;;;;;;8.92;84.38;96431.03;5055093;28;20182;-73
2023/02/22 08:42:34;;;;;;;20.67;18.90;;;;;;;9.17;84.17;96435.06;5055229;28;20277;-73
2023/02/22 08:45:00;;;;;;;16.90;15.50;;;;;;;8.96;84.03;96429.59;5054885;28;20194;-74
2023/02/22 08:47:25;;;;;;;13.90;12.40;;;;;;;9.30;83.13;96428.84;5054690;28;20662;-73
2023/02/22 08:49:51;;;;;;;14.20;12.93;;;;;;;9.59;81.52;96433.13;5058571;28;20193;-73
2023/02/22 08:52:20;;;;;;;32.47;30.17;;;;;;;9.62;80.26;96433.72;5054354;28;20638;-74
2023/02/22 08:54:45;;;;;;;32.47;30.17;;;;;;;9.73;80.04;96425.06;5054032;28;20209;-74
2023/02/22 08:57:11;;;;;;;25.23;23.20;;;;;;;9.52;81.46;96426.44;5054029;28;20234;-75
2023/02/22 08:59:37;;;;;;;35.33;32.87;;;;;;;9.96;80.25;96419.78;5052326;28;20244;-74
2023/02/22 09:02:02;;;;;;;28.87;26.53;;;;;;;10.17;78.65;96421.00;5054188;28;20177;-74
2023/02/22 09:04:28;;;;;;;28.87;26.63;;;;;;;9.70;80.50;96431.53;5054224;28;20186;-74
2023/02/22 09:06:53;;;;;;;29.47;27.10;;;;;;;9.64;81.30;96435.06;5053781;28;20642;-73
2023/02/22 09:09:22;;;;;;;26.03;24.07;;;;;;;9.84;81.15;96426.88;5052491;28;20193;-74
2023/02/22 09:11:48;;;;;;;26.87;24.73;;;;;;;10.07;80.09;96416.34;5053514;28;20259;-73
2023/02/22 09:14:15;;;;;;;23.07;21.10;;;;;;;9.84;79.19;96425.03;5053264;28;20202;-74
2023/02/22 09:16:41;;;;;;;19.97;18.43;;;;;;;9.91;79.62;96422.31;5053844;28;20198;-74
2023/02/22 09:19:07;;;;;;;26.80;21.30;;;;;;;9.39;82.50;96421.44;5053045;28;20331;-74
2023/02/22 09:21:32;;;;;;;27.80;25.40;;;;;;;9.38;84.04;96420.63;5053889;28;20264;-73
2023/02/22 09:23:59;;;;;;;15.07;13.30;;;;;;;9.49;83.90;96421.66;5054487;28;20194;-74
2023/02/22 09:26:26;;;;;;;22.73;20.93;;;;;;;9.43;83.01;96425.97;5053812;28;20688;-73
2023/02/22 09:28:52;;;;;;;26.93;25.10;;;;;;;9.02;84.35;96429.50;5053154;28;20210;-73
2023/02/22 09:31:17;;;;;;;29.27;26.93;;;;;;;9.10;83.65;96428.34;5052246;28;20194;-74
2023/02/22 09:33:43;;;;;;;29.20;26.87;;;;;;;8.99;83.42;96429.94;5045552;28;20226;-74
2023/02/22 09:36:09;;;;;;;22.90;20.63;;;;;;;8.79;83.68;96423.41;5043000;28;20213;-74
2023/02/22 09:38:35;;;;;;;22.03;20.20;;;;;;;8.91;83.60;96419.03;5051646;28;20278;-75
2023/02/22 09:41:11;;;;;;;22.20;20.07;;;;;;;8.94;83.68;96426.41;5053685;28;20243;-73
2023/02/22 09:44:15;;;;;;;20.83;18.87;;;;;;;8.93;83.52;96430.03;5053609;28;20189;-74
2023/02/22 09:46:44;;;;;;;21.30;19.53;;;;;;;8.89;83.76;96421.06;5048253;28;20646;-73
2023/02/22 09:49:19;;;;;;;24.90;22.83;;;;;;;9.05;83.76;96423.00;5053185;28;20190;-74
2023/02/22 09:51:56;;;;;;;26.17;24.07;;;;;;;9.06;83.97;96425.41;5053311;28;20666;-77
2023/02/22 09:54:38;;;;;;;23.53;21.43;;;;;;;9.23;83.64;96429.97;5053511;28;20631;-74
2023/02/22 09:57:07;;;;;;;22.00;20.17;;;;;;;9.33;82.22;96430.19;5053018;28;20283;-74
2023/02/22 09:59:41;;;;;;;18.27;16.47;;;;;;;9.27;82.50;96420.63;5052650;28;20647;-74
2023/02/22 10:02:38;;;;;;;15.97;14.03;;;;;;;9.33;81.90;96422.34;5053301;28;20186;-73
2023/02/22 10:05:09;;;;;;;17.63;12.93;;;;;;;9.22;82.58;96429.16;5053049;28;20186;-78
2023/02/22 10:07:51;;;;;;;16.37;12.60;;;;;;;9.53;81.48;96422.78;5054550;28;20202;-75
2023/02/22 10:10:19;;;;;;;14.73;13.23;;;;;;;9.91;81.16;96419.69;5038582;28;20182;-74
2023/02/22 10:12:57;;;;;;;15.87;13.63;;;;;;;10.20;78.97;96417.91;5052347;28;20198;-73
2023/02/22 10:15:41;;;;;;;13.97;12.63;;;;;;;9.76;79.51;96422.78;5052467;28;20181;-73
2023/02/22 10:18:53;;;;;;;16.70;15.10;;;;;;;10.01;78.31;96412.81;5052188;28;20461;-77
2023/02/22 10:21:43;;;;;;;20.27;18.47;;;;;;;10.19;77.00;96419.75;5023090;28;20212;-74
2023/02/22 10:24:26;;;;;;;21.93;19.77;;;;;;;10.01;78.31;96410.22;5051641;28;20225;-74
2023/02/22 10:26:53;;;;;;;22.07;20.17;;;;;;;10.23;78.95;96406.97;5051395;28;20251;-74
2023/02/22 10:29:33;;;;;;;26.83;22.07;;;;;;;10.71;76.80;96412.56;5052280;28;20188;-74
2023/02/22 10:32:06;;;;;;;28.80;26.33;;;;;;;10.86;74.87;96408.63;5049700;28;20182;-74
2023/02/22 10:34:53;;;;;;;13.43;10.67;;;;;;;11.04;72.42;96403.94;5050407;28;20245;-74
2023/02/22 10:37:26;;;;;;;15.27;9.73;;;;;;;11.14;72.18;96411.19;5050563;28;20202;-74
2023/02/22 10:40:04;;;;;;;11.50;9.87;;;;;;;11.23;72.12;96392.19;5053043;28;20277;-73
2023/02/22 10:42:29;;;;;;;12.83;10.03;;;;;;;11.47;70.73;96395.41;5055528;28;20269;-73
2023/02/22 10:44:55;;;;;;;13.57;10.43;;;;;;;11.01;70.91;96396.56;5052017;28;20626;-74
2023/02/22 10:47:22;;;;;;;18.67;15.87;;;;;;;11.32;70.79;96392.56;5050723;28;20252;-75
2023/02/22 10:49:54;;;;;;;43.57;40.40;;;;;;;11.10;70.08;96391.69;5052865;28;20280;-74
2023/02/22 10:52:33;;;;;;;15.07;13.50;;;;;;;11.24;71.56;96391.16;5043723;28;20202;-74
2023/02/22 10:55:00;;;;;;;31.43;28.73;;;;;;;11.45;69.81;96391.44;5052254;28;20198;-74
2023/02/22 10:57:32;;;;;;;30.80;28.10;;;;;;;11.48;70.21;96389.09;5051671;28;20209;-74
2023/02/22 11:00:16;;;;;;;31.20;29.07;;;;;;;11.16;71.27;96383.66;5051017;28;20252;-75
2023/02/22 11:03:01;;;;;;;27.67;25.47;;;;;;;11.38;70.65;96385.53;5051118;28;20182;-74
2023/02/22 11:05:27;;;;;;;23.00;20.87;;;;;;;11.47;70.52;96384.13;5064610;28;20182;-74
2023/02/22 11:08:15;;;;;;;25.00;22.60;;;;;;;11.29;70.64;96392.25;5052005;28;20220;-75
2023/02/22 11:10:42;;;;;;;19.10;17.37;;;;;;;11.42;70.16;96387.47;5052399;28;20585;-75
2023/02/22 11:13:17;;;;;;;20.77;18.77;;;;;;;11.51;70.35;96382.59;5049452;28;20247;-76
2023/02/22 11:15:43;;;;;;;18.43;17.03;;;;;;;11.84;68.69;96384.38;5051642;28;20197;-73
2023/02/22 11:18:22;;;;;;;18.30;16.87;;;;;;;11.80;69.23;96389.31;5051348;28;20197;-73
2023/02/22 11:20:48;;;;;;;20.63;18.70;;;;;;;11.70;68.62;96376.03;5052204;28;20269;-72
2023/02/22 11:23:22;;;;;;;19.47;17.83;;;;;;;11.78;68.38;96367.75;5055089;28;20717;-73
2023/02/22 11:25:50;;;;;;;18.40;16.70;;;;;;;11.66;68.85;96378.34;5056391;28;20640;-72
2023/02/22 11:28:29;;;;;;;18.53;16.77;;;;;;;11.61;69.70;96373.03;5055895;28;20228;-72
2023/02/22 11:31:03;;;;;;;16.63;15.13;;;;;;;11.74;69.37;96379.78;5055277;28;20208;-75
2023/02/22 11:33:30;;;;;;;15.20;13.03;;;;;;;11.72;70.43;96370.53;5055177;28;20586;-74
2023/02/22 11:35:58;;;;;;;11.97;10.83;;;;;;;11.79;70.30;96358.03;5054271;28;20293;-75